Terminal Aerodrome Forecast
Issued by NWS

Home | Current Version | Previous Version | Text Only | Print | Product List | Glossary On
Versions: 1 2 3 4 5 6 7 8 9 10 11 12 13 14 15 16 17 18
000
FTUS46 KSGX 302334
TAFONT
TAF
KONT 302334Z 3100/0106 26011KT P6SM FEW090
     FM310400 25005KT P6SM SKC
     FM311100 VRB04KT P6SM BKN012
     FM311600 VRB04KT P6SM SCT015
     FM312000 26011KT P6SM FEW090
     FM010400 25005KT P6SM SKC=

USA.gov is the U.S. government's official web portal to all federal, state and local government web resources and services.